createdAt,value
2023-01-07T00:01:25.615Z,20.50
2023-01-07T00:03:54.749Z,23.83
2023-01-07T00:06:25.154Z,21.30
2023-01-07T00:08:54.982Z,22.63
2023-01-07T00:11:25.160Z,21.50
2023-01-07T00:13:54.913Z,20.90
2023-01-07T00:16:25.976Z,20.97
2023-01-07T00:18:55.514Z,22.17
2023-01-07T00:21:24.741Z,20.30
2023-01-07T00:23:55.304Z,21.90
2023-01-07T00:26:24.692Z,22.30
2023-01-07T00:28:53.877Z,21.83
2023-01-07T00:31:24.778Z,23.70
2023-01-07T00:34:06.983Z,22.37
2023-01-07T00:36:40.885Z,21.73
2023-01-07T00:39:12.722Z,21.97
2023-01-07T00:41:40.935Z,20.37
2023-01-07T00:44:08.897Z,21.40
2023-01-07T00:46:38.205Z,22.17
2023-01-07T00:49:06.118Z,19.97
2023-01-07T00:51:33.958Z,22.33
2023-01-07T00:54:02.323Z,21.63
2023-01-07T00:56:30.621Z,21.83
2023-01-07T00:58:58.606Z,22.67
2023-01-07T01:01:27.000Z,22.60
2023-01-07T01:03:56.260Z,24.33
2023-01-07T01:06:24.165Z,22.40
2023-01-07T01:08:52.102Z,23.83
2023-01-07T01:11:20.921Z,23.23
2023-01-07T01:13:48.890Z,23.00
2023-01-07T01:16:19.389Z,23.57
2023-01-07T01:18:47.260Z,25.77
2023-01-07T01:21:17.312Z,25.23
2023-01-07T01:23:45.433Z,24.80
2023-01-07T01:26:15.622Z,25.17
2023-01-07T01:28:44.426Z,23.77
2023-01-07T01:31:14.659Z,26.17
2023-01-07T01:33:55.247Z,24.97
2023-01-07T01:36:25.487Z,24.33
2023-01-07T01:38:57.444Z,25.47
2023-01-07T01:41:25.896Z,22.40
2023-01-07T01:43:55.430Z,23.20
2023-01-07T01:46:31.942Z,24.00
2023-01-07T01:49:04.514Z,22.20
2023-01-07T01:51:39.844Z,23.87
2023-01-07T01:54:11.706Z,21.87
2023-01-07T01:56:44.770Z,22.70
2023-01-07T01:59:18.720Z,24.40
2023-01-07T02:01:46.923Z,23.53
2023-01-07T02:04:20.695Z,23.50
2023-01-07T02:06:55.805Z,22.27
2023-01-07T02:09:25.541Z,22.30
2023-01-07T02:12:04.360Z,24.17
2023-01-07T02:14:45.481Z,21.70
2023-01-07T02:17:23.483Z,21.10
2023-01-07T02:20:20.072Z,22.07
2023-01-07T02:23:19.660Z,20.43
2023-01-07T02:26:12.147Z,20.90
2023-01-07T02:29:03.030Z,20.47
2023-01-07T02:32:00.870Z,22.60
2023-01-07T02:34:38.598Z,19.40
2023-01-07T02:37:13.812Z,21.03
2023-01-07T02:39:56.304Z,16.57
2023-01-07T02:42:38.646Z,19.53
2023-01-07T02:45:16.449Z,21.20
2023-01-07T02:47:51.854Z,20.00
2023-01-07T02:50:20.560Z,18.97
2023-01-07T02:52:48.501Z,18.60
2023-01-07T02:55:19.939Z,18.30
2023-01-07T02:58:14.295Z,18.30
2023-01-07T03:01:25.214Z,19.17
2023-01-07T03:04:07.862Z,18.70
2023-01-07T03:06:50.208Z,17.60
2023-01-07T03:09:26.478Z,18.57
2023-01-07T03:12:01.664Z,18.73
2023-01-07T03:14:39.391Z,18.97
2023-01-07T03:17:10.231Z,18.73
2023-01-07T03:19:45.781Z,19.13
2023-01-07T03:22:16.462Z,19.80
2023-01-07T03:24:47.627Z,18.67
2023-01-07T03:27:19.857Z,19.40
2023-01-07T03:29:48.803Z,20.97
2023-01-07T03:32:19.093Z,18.70
2023-01-07T03:34:49.981Z,19.40
2023-01-07T03:37:20.123Z,20.00
2023-01-07T03:39:49.937Z,19.63
2023-01-07T03:42:40.880Z,20.10
2023-01-07T03:45:22.010Z,14.77
2023-01-07T03:47:52.129Z,19.13
2023-01-07T03:50:23.046Z,18.73
2023-01-07T03:52:52.288Z,18.17
2023-01-07T03:55:22.223Z,19.23
2023-01-07T03:57:52.133Z,18.47
2023-01-07T04:00:20.196Z,18.50
2023-01-07T04:02:55.553Z,18.07
2023-01-07T04:05:29.720Z,19.30
2023-01-07T04:07:57.681Z,19.40
2023-01-07T04:10:27.155Z,19.77
2023-01-07T04:12:55.073Z,20.53
2023-01-07T04:15:23.509Z,22.17
2023-01-07T04:17:51.824Z,20.97
2023-01-07T04:20:19.892Z,21.90
2023-01-07T04:22:49.125Z,21.87
2023-01-07T04:25:17.002Z,20.80
2023-01-07T04:27:46.155Z,21.47
2023-01-07T04:30:14.290Z,19.67
2023-01-07T04:32:42.218Z,21.63
2023-01-07T04:35:10.862Z,21.27
2023-01-07T04:37:39.452Z,23.17
2023-01-07T04:40:10.477Z,23.27
2023-01-07T04:42:38.746Z,23.47
2023-01-07T04:45:09.944Z,23.40
2023-01-07T04:47:37.898Z,23.50
2023-01-07T04:50:08.126Z,23.47
2023-01-07T04:52:37.553Z,23.17
2023-01-07T04:55:07.506Z,21.97
2023-01-07T04:57:36.757Z,25.30
2023-01-07T05:00:05.934Z,22.60
2023-01-07T05:02:34.513Z,21.77
2023-01-07T05:05:02.635Z,19.27
2023-01-07T05:07:31.207Z,18.10
2023-01-07T05:10:00.160Z,19.70
2023-01-07T05:12:29.298Z,21.17
2023-01-07T05:14:58.548Z,23.50
2023-01-07T05:17:27.022Z,21.33
2023-01-07T05:19:55.077Z,20.57
2023-01-07T05:22:23.113Z,21.03
2023-01-07T05:24:51.042Z,20.67
2023-01-07T05:27:18.967Z,20.77
2023-01-07T05:29:46.885Z,18.53
2023-01-07T05:32:16.073Z,17.50
2023-01-07T05:34:44.664Z,18.47
2023-01-07T05:37:12.514Z,17.17
2023-01-07T05:39:42.166Z,19.17
2023-01-07T05:42:10.419Z,27.10
2023-01-07T05:44:38.377Z,41.30
2023-01-07T05:47:06.305Z,27.07
2023-01-07T05:49:35.653Z,19.70
2023-01-07T05:52:03.514Z,18.47
2023-01-07T05:54:31.358Z,17.47
2023-01-07T05:56:59.264Z,16.23
2023-01-07T05:59:27.104Z,21.47
2023-01-07T06:01:55.017Z,17.57
2023-01-07T06:04:22.925Z,19.03
2023-01-07T06:06:52.187Z,15.80
2023-01-07T06:09:20.167Z,14.17
2023-01-07T06:11:48.051Z,15.40
2023-01-07T06:14:16.052Z,15.47
2023-01-07T06:16:43.918Z,15.77
2023-01-07T06:19:11.905Z,15.40
2023-01-07T06:21:39.891Z,14.93
2023-01-07T06:24:09.749Z,15.23
2023-01-07T06:26:37.689Z,15.27
2023-01-07T06:29:05.548Z,16.20
2023-01-07T06:31:33.965Z,16.47
2023-01-07T06:34:01.794Z,14.50
2023-01-07T06:36:29.676Z,15.57
2023-01-07T06:38:57.495Z,16.00
2023-01-07T06:41:26.650Z,16.10
2023-01-07T06:43:54.544Z,16.37
2023-01-07T06:46:22.809Z,16.90
2023-01-07T06:48:50.700Z,17.40
2023-01-07T06:51:18.580Z,16.20
2023-01-07T06:53:46.449Z,20.20
2023-01-07T06:56:14.303Z,41.37
2023-01-07T06:58:43.526Z,23.03
2023-01-07T07:01:11.814Z,18.47
2023-01-07T07:03:39.998Z,16.60
2023-01-07T07:06:08.122Z,18.43
2023-01-07T07:08:35.960Z,17.30
2023-01-07T07:11:03.755Z,18.00
2023-01-07T07:13:31.609Z,19.70
2023-01-07T07:16:00.859Z,21.83
2023-01-07T07:18:28.995Z,22.60
2023-01-07T07:20:58.550Z,29.07
2023-01-07T07:23:26.659Z,32.63
2023-01-07T07:25:54.895Z,38.07
2023-01-07T07:28:22.743Z,34.23
2023-01-07T07:30:50.626Z,38.13
2023-01-07T07:33:19.985Z,45.20
2023-01-07T07:35:48.628Z,49.50
2023-01-07T07:38:17.938Z,45.77
2023-01-07T07:40:46.153Z,50.63
2023-01-07T07:43:14.450Z,49.67
2023-01-07T07:45:42.760Z,51.10
2023-01-07T07:48:11.269Z,27.30
2023-01-07T07:50:40.479Z,17.00
2023-01-07T07:53:10.344Z,19.47
2023-01-07T07:55:39.069Z,16.50
2023-01-07T07:58:07.657Z,16.30
2023-01-07T08:00:35.569Z,14.90
2023-01-07T08:03:03.747Z,14.17
2023-01-07T08:05:31.838Z,15.20
2023-01-07T08:08:01.041Z,14.03
2023-01-07T08:10:30.119Z,14.40
2023-01-07T08:12:57.995Z,15.07
2023-01-07T08:15:26.224Z,13.43
2023-01-07T08:18:01.339Z,14.13
2023-01-07T08:20:29.837Z,17.17
2023-01-07T08:23:00.941Z,18.57
2023-01-07T08:25:28.945Z,16.00
2023-01-07T08:27:57.022Z,14.47
2023-01-07T08:30:25.691Z,12.63
2023-01-07T08:32:53.665Z,12.93
2023-01-07T08:35:22.025Z,13.33
2023-01-07T08:37:50.102Z,13.27
2023-01-07T08:40:19.332Z,13.70
2023-01-07T08:42:47.173Z,12.50
2023-01-07T08:45:15.067Z,11.87
2023-01-07T08:47:47.435Z,13.67
2023-01-07T08:50:15.444Z,18.03
2023-01-07T08:52:48.749Z,19.40
2023-01-07T08:55:16.688Z,19.47
2023-01-07T08:57:47.411Z,20.33
2023-01-07T09:00:16.951Z,19.33
2023-01-07T09:02:45.451Z,22.20
2023-01-07T09:05:13.775Z,21.43
2023-01-07T09:07:41.717Z,21.97
2023-01-07T09:10:10.902Z,19.23
2023-01-07T09:12:38.934Z,18.10
2023-01-07T09:15:10.019Z,20.13
2023-01-07T09:17:37.949Z,19.07
2023-01-07T09:20:07.454Z,18.60
2023-01-07T09:22:36.996Z,18.43
2023-01-07T09:25:06.225Z,19.47
2023-01-07T09:27:34.327Z,18.87
2023-01-07T09:30:02.166Z,18.40
2023-01-07T09:32:31.304Z,19.10
2023-01-07T09:34:59.193Z,21.97
2023-01-07T09:37:27.017Z,18.53
2023-01-07T09:39:54.827Z,16.00
2023-01-07T09:42:29.830Z,19.30
2023-01-07T09:45:10.270Z,19.10
2023-01-07T09:47:43.705Z,16.83
2023-01-07T09:50:19.621Z,17.90
2023-01-07T09:52:51.673Z,18.40
2023-01-07T09:55:23.747Z,17.90
2023-01-07T09:57:51.863Z,17.27
2023-01-07T10:00:23.588Z,17.70
2023-01-07T10:03:05.577Z,20.10
2023-01-07T10:05:40.282Z,18.03
2023-01-07T10:08:29.060Z,17.90
2023-01-07T10:11:08.969Z,16.70
2023-01-07T10:13:59.370Z,15.53
2023-01-07T10:16:35.681Z,16.73
2023-01-07T10:19:11.784Z,19.80
2023-01-07T10:21:42.982Z,19.23
2023-01-07T10:24:21.029Z,16.23
2023-01-07T10:26:54.453Z,15.53
2023-01-07T10:29:27.474Z,17.63
2023-01-07T10:31:59.673Z,18.17
2023-01-07T10:34:36.847Z,22.13
2023-01-07T10:37:07.869Z,26.23
2023-01-07T10:39:47.601Z,18.57
2023-01-07T10:42:22.854Z,16.43
2023-01-07T10:45:31.452Z,14.13
2023-01-07T10:48:19.161Z,14.93
2023-01-07T10:51:01.392Z,16.97
2023-01-07T10:53:40.544Z,15.70
2023-01-07T10:56:20.315Z,15.73
2023-01-07T10:58:50.291Z,15.77
2023-01-07T11:01:25.780Z,15.50
2023-01-07T11:03:56.698Z,16.03
2023-01-07T11:06:38.795Z,13.20
2023-01-07T11:09:11.875Z,15.90
2023-01-07T11:11:41.488Z,15.20
2023-01-07T11:14:15.374Z,17.20
2023-01-07T11:16:49.059Z,16.90
2023-01-07T11:19:26.375Z,15.10
2023-01-07T11:21:55.627Z,16.07
2023-01-07T11:24:32.070Z,14.93
2023-01-07T11:27:03.070Z,16.13
2023-01-07T11:29:37.090Z,17.30
2023-01-07T11:32:06.045Z,18.30
2023-01-07T11:34:36.938Z,19.53
2023-01-07T11:37:06.497Z,51.57
2023-01-07T11:39:36.632Z,29.10
2023-01-07T11:42:40.622Z,29.67
2023-01-07T11:45:13.540Z,24.20
2023-01-07T11:47:47.181Z,20.27
2023-01-07T11:50:30.446Z,18.67
2023-01-07T11:53:13.019Z,20.80
2023-01-07T11:55:41.533Z,18.83
2023-01-07T11:58:28.285Z,20.87
2023-01-07T12:01:13.738Z,21.40
2023-01-07T12:03:43.490Z,20.40
2023-01-07T12:06:19.840Z,19.03
2023-01-07T12:08:56.037Z,19.10
2023-01-07T12:11:30.821Z,21.47
2023-01-07T12:14:06.759Z,18.23
2023-01-07T12:16:36.161Z,19.03
2023-01-07T12:19:17.840Z,18.67
2023-01-07T12:22:02.484Z,19.07
2023-01-07T12:24:48.232Z,19.47
2023-01-07T12:27:29.620Z,19.43
2023-01-07T12:30:09.253Z,18.70
2023-01-07T12:32:47.895Z,20.70
2023-01-07T12:35:20.432Z,20.23
2023-01-07T12:37:56.597Z,19.43
2023-01-07T12:40:34.032Z,20.93
2023-01-07T12:43:05.919Z,20.17
2023-01-07T12:45:40.722Z,20.87
2023-01-07T12:48:17.416Z,22.40
2023-01-07T12:50:48.698Z,21.97
2023-01-07T12:53:20.963Z,22.20
2023-01-07T12:55:55.690Z,22.13
2023-01-07T12:58:36.632Z,23.00
2023-01-07T13:01:11.068Z,24.57
2023-01-07T13:03:47.311Z,23.13
2023-01-07T13:06:19.592Z,25.13
2023-01-07T13:08:55.548Z,24.70
2023-01-07T13:11:42.709Z,24.77
2023-01-07T13:14:19.913Z,24.70
2023-01-07T13:16:47.760Z,26.53
2023-01-07T13:19:15.660Z,25.53
2023-01-07T13:21:46.415Z,25.90
2023-01-07T13:24:54.441Z,25.60
2023-01-07T13:27:35.773Z,26.90
2023-01-07T13:30:19.673Z,28.47
2023-01-07T13:33:03.505Z,29.83
2023-01-07T13:35:56.420Z,27.70
2023-01-07T13:38:58.613Z,28.40
2023-01-07T13:41:58.853Z,26.07
2023-01-07T13:45:01.789Z,27.00
2023-01-07T13:47:41.118Z,25.87
2023-01-07T13:50:19.625Z,26.60
2023-01-07T13:52:57.154Z,26.50
2023-01-07T13:55:38.234Z,26.00
2023-01-07T13:58:44.794Z,27.20
2023-01-07T14:01:15.629Z,24.30
2023-01-07T14:03:46.841Z,23.27
2023-01-07T14:06:40.590Z,23.43
2023-01-07T14:09:26.310Z,22.13
2023-01-07T14:12:30.255Z,23.90
2023-01-07T14:15:09.200Z,23.77
2023-01-07T14:17:49.119Z,24.00
2023-01-07T14:20:23.021Z,24.60
2023-01-07T14:22:59.553Z,24.60
2023-01-07T14:25:48.687Z,23.10
2023-01-07T14:28:56.480Z,23.17
2023-01-07T14:31:26.454Z,23.87
2023-01-07T14:33:58.906Z,25.10
2023-01-07T14:37:06.239Z,23.27
2023-01-07T14:39:36.001Z,21.43
2023-01-07T14:42:43.572Z,22.90
2023-01-07T14:45:48.974Z,21.70
2023-01-07T14:48:37.129Z,24.50
2023-01-07T14:51:33.092Z,23.50
2023-01-07T14:54:40.677Z,27.30
2023-01-07T14:57:21.602Z,26.50
2023-01-07T15:00:11.285Z,24.20
2023-01-07T15:03:17.647Z,24.33
2023-01-07T15:06:12.720Z,23.53
2023-01-07T15:09:08.157Z,23.00
2023-01-07T15:11:55.031Z,23.00
2023-01-07T15:14:45.617Z,21.57
2023-01-07T15:17:16.306Z,24.30
2023-01-07T15:19:45.112Z,22.07
2023-01-07T15:22:44.293Z,23.60
2023-01-07T15:25:29.740Z,23.80
2023-01-07T15:28:05.935Z,25.97
2023-01-07T15:30:45.291Z,30.23
2023-01-07T15:33:35.014Z,28.20
2023-01-07T15:36:04.882Z,25.50
2023-01-07T15:38:39.130Z,26.87
2023-01-07T15:41:24.784Z,23.90
2023-01-07T15:43:53.248Z,22.30
2023-01-07T15:46:22.529Z,23.30
2023-01-07T15:49:17.097Z,25.30
2023-01-07T15:51:47.951Z,22.97
2023-01-07T15:54:32.153Z,24.70
2023-01-07T15:57:07.678Z,24.17
2023-01-07T15:59:38.932Z,22.70
2023-01-07T16:02:22.183Z,24.27
2023-01-07T16:04:52.946Z,22.53
2023-01-07T16:07:28.390Z,23.20
2023-01-07T16:09:57.644Z,22.17
2023-01-07T16:12:35.610Z,20.87
2023-01-07T16:15:20.911Z,20.63
2023-01-07T16:17:52.324Z,20.60
2023-01-07T16:20:23.374Z,23.90
2023-01-07T16:22:53.070Z,21.20
2023-01-07T16:25:35.954Z,21.07
2023-01-07T16:28:05.965Z,21.07
2023-01-07T16:30:39.118Z,22.40
2023-01-07T16:33:07.074Z,22.53
2023-01-07T16:35:38.470Z,22.13
2023-01-07T16:38:07.313Z,22.37
2023-01-07T16:40:37.346Z,21.80
2023-01-07T16:43:32.010Z,24.87
2023-01-07T16:46:17.300Z,21.17
2023-01-07T16:48:45.789Z,23.17
2023-01-07T16:51:37.886Z,19.93
2023-01-07T16:54:40.291Z,21.97
2023-01-07T16:57:28.606Z,21.70
2023-01-07T16:59:59.662Z,22.80
2023-01-07T17:02:31.852Z,22.93
2023-01-07T17:05:16.986Z,22.67
2023-01-07T17:07:48.793Z,21.60
2023-01-07T17:10:22.689Z,22.10
2023-01-07T17:12:57.965Z,22.90
2023-01-07T17:15:40.062Z,24.23
2023-01-07T17:18:27.559Z,26.63
2023-01-07T17:20:57.290Z,22.53
2023-01-07T17:23:43.221Z,22.47
2023-01-07T17:26:21.420Z,21.97
2023-01-07T17:28:51.624Z,20.80
2023-01-07T17:31:22.517Z,21.33
2023-01-07T17:33:51.020Z,22.80
2023-01-07T17:36:21.230Z,21.00
2023-01-07T17:38:49.284Z,22.27
2023-01-07T17:41:48.834Z,24.33
2023-01-07T17:44:16.907Z,23.13
2023-01-07T17:46:46.246Z,27.30
2023-01-07T17:49:14.276Z,23.97
2023-01-07T17:51:44.334Z,24.27
2023-01-07T17:54:19.960Z,25.53
2023-01-07T17:56:48.301Z,25.63
2023-01-07T17:59:18.064Z,25.10
2023-01-07T18:01:47.591Z,27.13
2023-01-07T18:04:15.687Z,25.70
2023-01-07T18:06:44.394Z,25.93
2023-01-07T18:09:13.722Z,25.20
2023-01-07T18:12:01.642Z,25.07
2023-01-07T18:14:29.779Z,25.80
2023-01-07T18:16:59.257Z,25.30
2023-01-07T18:19:27.162Z,26.30
2023-01-07T18:21:55.249Z,25.13
2023-01-07T18:24:23.329Z,24.00
2023-01-07T18:26:51.302Z,24.60
2023-01-07T18:29:19.205Z,24.47
2023-01-07T18:31:47.167Z,24.30
2023-01-07T18:34:16.576Z,24.70
2023-01-07T18:36:44.462Z,24.60
2023-01-07T18:39:19.149Z,23.03
2023-01-07T18:41:49.941Z,22.70
2023-01-07T18:44:18.051Z,22.80
2023-01-07T18:46:45.950Z,22.70
2023-01-07T18:49:14.205Z,23.90
2023-01-07T18:51:43.498Z,23.97
2023-01-07T18:54:11.346Z,22.97
2023-01-07T18:56:39.266Z,24.43
2023-01-07T18:59:07.193Z,23.50
2023-01-07T19:01:35.830Z,24.07
2023-01-07T19:04:05.081Z,24.10
2023-01-07T19:06:34.280Z,22.07
2023-01-07T19:09:03.547Z,23.90
2023-01-07T19:11:31.434Z,26.30
2023-01-07T19:13:59.388Z,23.10
2023-01-07T19:16:27.394Z,22.10
2023-01-07T19:18:55.259Z,23.93
2023-01-07T19:21:25.216Z,25.50
2023-01-07T19:23:53.291Z,25.37
2023-01-07T19:26:22.690Z,24.40
2023-01-07T19:28:50.550Z,23.10
2023-01-07T19:31:18.452Z,23.73
2023-01-07T19:33:46.314Z,28.50
2023-01-07T19:36:17.008Z,28.07
2023-01-07T19:38:46.953Z,25.43
2023-01-07T19:41:17.646Z,23.93
2023-01-07T19:43:48.768Z,24.87
2023-01-07T19:46:17.106Z,24.67
2023-01-07T19:48:47.498Z,23.40
2023-01-07T19:51:16.103Z,28.00
2023-01-07T19:53:44.012Z,27.87
2023-01-07T19:56:13.568Z,30.83
2023-01-07T19:58:42.829Z,26.90
2023-01-07T20:01:15.340Z,27.30
2023-01-07T20:03:44.559Z,24.97
2023-01-07T20:06:14.319Z,27.73
2023-01-07T20:08:42.303Z,46.17
2023-01-07T20:11:10.293Z,53.93
2023-01-07T20:13:39.534Z,30.93
2023-01-07T20:16:09.436Z,37.10
2023-01-07T20:18:39.713Z,48.10
2023-01-07T20:21:08.451Z,32.37
2023-01-07T20:23:36.957Z,33.50
2023-01-07T20:26:06.596Z,37.43
2023-01-07T20:28:35.524Z,46.87
2023-01-07T20:31:05.664Z,31.07
2023-01-07T20:33:33.563Z,27.13
2023-01-07T20:36:04.795Z,21.40
2023-01-07T20:38:32.956Z,19.33
2023-01-07T20:41:01.261Z,19.60
2023-01-07T20:43:29.170Z,18.40
2023-01-07T20:46:01.086Z,17.63
2023-01-07T20:48:29.841Z,17.87
2023-01-07T20:50:58.405Z,18.07
2023-01-07T20:53:28.544Z,16.43
2023-01-07T20:56:00.147Z,16.47
2023-01-07T20:58:28.297Z,18.43
2023-01-07T21:00:58.620Z,15.60
2023-01-07T21:03:27.125Z,15.97
2023-01-07T21:05:56.449Z,15.70
2023-01-07T21:08:24.613Z,15.70
2023-01-07T21:10:54.613Z,16.53
2023-01-07T21:13:23.261Z,15.93
2023-01-07T21:15:51.151Z,16.10
2023-01-07T21:18:19.471Z,16.27
2023-01-07T21:20:47.993Z,16.70
2023-01-07T21:23:15.821Z,16.47
2023-01-07T21:25:47.985Z,15.40
2023-01-07T21:28:17.236Z,14.97
2023-01-07T21:30:45.206Z,14.87
2023-01-07T21:33:13.410Z,15.90
2023-01-07T21:35:41.595Z,16.60
2023-01-07T21:38:09.493Z,22.57
2023-01-07T21:40:39.273Z,18.33
2023-01-07T21:43:07.617Z,17.37
2023-01-07T21:45:37.387Z,16.60
2023-01-07T21:48:05.700Z,17.23
2023-01-07T21:50:33.591Z,17.80
2023-01-07T21:53:01.474Z,19.37
2023-01-07T21:55:29.465Z,17.50
2023-01-07T21:57:57.402Z,15.77
2023-01-07T22:00:25.280Z,16.07
2023-01-07T22:02:54.561Z,15.13
2023-01-07T22:05:22.446Z,18.00
2023-01-07T22:07:50.229Z,16.90
2023-01-07T22:10:18.283Z,15.70
2023-01-07T22:12:46.185Z,15.87
2023-01-07T22:15:14.063Z,15.40
2023-01-07T22:17:41.987Z,16.03
2023-01-07T22:20:13.140Z,14.60
2023-01-07T22:22:41.217Z,15.03
2023-01-07T22:25:10.607Z,14.83
2023-01-07T22:27:38.594Z,14.40
2023-01-07T22:30:08.219Z,14.30
2023-01-07T22:32:36.093Z,15.80
2023-01-07T22:35:04.085Z,14.80
2023-01-07T22:37:33.480Z,15.13
2023-01-07T22:40:04.244Z,14.37
2023-01-07T22:42:36.468Z,15.97
2023-01-07T22:45:09.788Z,14.07
2023-01-07T22:47:41.789Z,14.90
2023-01-07T22:50:10.673Z,14.77
2023-01-07T22:52:40.062Z,15.03
2023-01-07T22:55:08.834Z,14.47
2023-01-07T22:57:37.072Z,14.60
2023-01-07T23:00:07.761Z,14.47
2023-01-07T23:02:35.631Z,14.50
2023-01-07T23:05:03.928Z,13.50
2023-01-07T23:07:31.875Z,13.83
2023-01-07T23:10:01.182Z,14.13
2023-01-07T23:12:29.235Z,15.53
2023-01-07T23:14:57.169Z,14.83
2023-01-07T23:17:26.253Z,14.83
2023-01-07T23:19:54.177Z,14.50
2023-01-07T23:22:22.030Z,13.80
2023-01-07T23:24:49.879Z,15.33
2023-01-07T23:27:19.041Z,14.70
2023-01-07T23:29:46.897Z,14.80
2023-01-07T23:32:14.716Z,16.37
2023-01-07T23:34:42.581Z,20.83
2023-01-07T23:37:10.427Z,20.90
2023-01-07T23:39:38.286Z,17.20
2023-01-07T23:42:06.239Z,16.50
2023-01-07T23:44:35.432Z,17.20
2023-01-07T23:47:03.358Z,16.50
2023-01-07T23:49:31.908Z,16.07
2023-01-07T23:51:59.818Z,15.60
2023-01-07T23:54:27.754Z,16.13
2023-01-07T23:56:56.071Z,15.70
2023-01-07T23:59:24.112Z,16.60
